Home > Products > Valid Products > TAF

000
FTUS44 KLCH 301732
TAFAEX
TAF
KAEX 301732Z 3018/3118 19004KT P6SM FEW050 SCT150 BKN250=



000
FTUS44 KLCH 301732
TAFARA
TAF
KARA 301732Z 3018/3118 19006KT P6SM SCT040 SCT160 SCT250
     FM310800 VRB03KT 3SM BR SCT028 SCT250
      TEMPO 3111/3113 1SM BR BKN028
     FM311400 VRB04KT P6SM SCT035 SCT230=



000
FTUS44 KLCH 301732
TAFBPT
TAF
KBPT 301732Z 3018/3118 VRB05KT P6SM SCT045 SCT060 BKN210
     FM310100 18003KT P6SM SCT220
     FM311600 18006KT P6SM VCTS SCT026CB BKN220=



000
FTUS44 KLCH 301732
TAFLFT
TAF
KLFT 301732Z 3018/3118 08003KT P6SM SCT030 BKN045 BKN160
     FM302300 22003KT P6SM SCT045 SCT150 SCT250=



000
FTUS44 KLCH 301732
TAFLCH
TAF
KLCH 301732Z 3018/3118 VRB05KT P6SM FEW040 SCT180 SCT250
     FM302300 20003KT P6SM FEW040 SCT210
     FM311100 VRB03KT 3SM BR SCT030 SCT250
      TEMPO 3111/3113 1SM BR BKN030
     FM311400 VRB04KT P6SM SCT035 BKN220=



000
FTUS44 KLCH 301631 AAA
TAFLFT
TAF AMD
KLFT 301631Z 3017/3112 VRB04KT P6SM BKN045 BKN160 BKN250
     FM302300 22003KT P6SM SCT045 SCT150 SCT250=



000
FTUS44 KLCH 301631 AAA
TAFLFT
TAF AMD
KLFT 301631Z 3017/3112 VRB04KT P6SM BKN045 BKN160 BKN250
     FM302300 22003KT P6SM SCT045 SCT150 SCT250=



000
FTUS44 KLCH 301522 AAA
TAFARA
TAF AMD
KARA 301522Z 3015/3112 06005KT P6SM FEW060 SCT160 SCT250
     FM301800 19006KT P6SM SCT040 SCT160 SCT250=



000
FTUS44 KLCH 301522 AAA
TAFARA
TAF AMD
KARA 301522Z 3015/3112 06005KT P6SM FEW060 SCT160 SCT250
     FM301800 19006KT P6SM SCT040 SCT160 SCT250=



000
FTUS44 KLCH 301512 AAA
TAFLCH
TAF AMD
KLCH 301512Z 3015/3112 VRB05KT P6SM FEW040 SCT180 SCT250
     FM302300 21003KT P6SM FEW040 SCT210
     FM311100 VRB03KT 3SM BR SCT030 SCT250
      TEMPO 3111/3112 1SM BR BKN030=



000
FTUS44 KLCH 301122
TAFAEX
TAF
KAEX 301122Z 3012/3112 18004KT P6SM FEW050=



000
FTUS44 KLCH 301122
TAFLCH
TAF
KLCH 301122Z 3012/3112 20006KT P6SM FEW050=



000
FTUS44 KLCH 301122
TAFLFT
TAF
KLFT 301122Z 3012/3112 20005KT P6SM FEW050=



000
FTUS44 KLCH 301122
TAFARA
TAF
KARA 301122Z 3012/3112 19006KT P6SM FEW050=



000
FTUS44 KLCH 301122
TAFAEX
TAF
KAEX 301122Z 3012/3112 18004KT P6SM FEW050=



000
FTUS44 KLCH 301122
TAFBPT
TAF
KBPT 301122Z 3012/3112 19005KT P6SM FEW050=



000
FTUS44 KLCH 301122
TAFLCH
TAF
KLCH 301122Z 3012/3112 20006KT P6SM FEW050=



000
FTUS44 KLCH 301122
TAFBPT
TAF
KBPT 301122Z 3012/3112 19005KT P6SM FEW050=



000
FTUS44 KLCH 301122
TAFLFT
TAF
KLFT 301122Z 3012/3112 20005KT P6SM FEW050=



000
FTUS44 KLCH 301122
TAFARA
TAF
KARA 301122Z 3012/3112 19006KT P6SM FEW050=



000
FTUS44 KLCH 300520
TAFAEX
TAF
KAEX 300520Z 3006/3106 23003KT P6SM SKC
     FM301800 18005KT P6SM FEW050=



000
FTUS44 KLCH 300520
TAFBPT
TAF
KBPT 300520Z 3006/3106 19007KT P6SM FEW050=



000
FTUS44 KLCH 300520
TAFLFT
TAF
KLFT 300520Z 3006/3106 20006KT P6SM FEW050=



000
FTUS44 KLCH 300520
TAFLCH
TAF
KLCH 300520Z 3006/3106 20006KT P6SM FEW050=



000
FTUS44 KLCH 300520
TAFAEX
TAF
KAEX 300520Z 3006/3106 23003KT P6SM SKC
     FM301800 18005KT P6SM FEW050=



000
FTUS44 KLCH 300520
TAFBPT
TAF
KBPT 300520Z 3006/3106 19007KT P6SM FEW050=



000
FTUS44 KLCH 300520
TAFARA
TAF
KARA 300520Z 3006/3106 19006KT P6SM FEW050=



000
FTUS44 KLCH 300520
TAFLFT
TAF
KLFT 300520Z 3006/3106 20006KT P6SM FEW050=



000
FTUS44 KLCH 300520
TAFLCH
TAF
KLCH 300520Z 3006/3106 20006KT P6SM FEW050=



000
FTUS44 KLCH 292320
TAFBPT
TAF
KBPT 292320Z 3000/3024 20006KT P6SM FEW050=



000
FTUS44 KLCH 292320
TAFLFT
TAF
KLFT 292320Z 3000/3024 VRB03KT P6SM FEW060
     FM301700 20006KT P6SM FEW050=



000
FTUS44 KLCH 292320
TAFAEX
TAF
KAEX 292320Z 3000/3024 VRB03KT P6SM FEW100
     FM301600 19005KT P6SM FEW050=



000
FTUS44 KLCH 292320
TAFARA
TAF
KARA 292320Z 3000/3024 VRB03KT P6SM FEW060
     FM301700 20006KT P6SM FEW050=



000
FTUS44 KLCH 292320
TAFBPT
TAF
KBPT 292320Z 3000/3024 20006KT P6SM FEW050=



000
FTUS44 KLCH 292320
TAFLFT
TAF
KLFT 292320Z 3000/3024 VRB03KT P6SM FEW060
     FM301700 20006KT P6SM FEW050=



000
FTUS44 KLCH 292320
TAFAEX
TAF
KAEX 292320Z 3000/3024 VRB03KT P6SM FEW100
     FM301600 19005KT P6SM FEW050=



000
FTUS44 KLCH 292320
TAFLCH
TAF
KLCH 292320Z 3000/3024 19005KT P6SM FEW050=



000
FTUS44 KLCH 292320
TAFARA
TAF
KARA 292320Z 3000/3024 VRB03KT P6SM FEW060
     FM301700 20006KT P6SM FEW050=



000
FTUS44 KLCH 292320
TAFLCH
TAF
KLCH 292320Z 3000/3024 19005KT P6SM FEW050=



000
FTUS44 KLCH 291726
TAFLFT
TAF
KLFT 291726Z 2918/3018 VRB04KT P6SM SCT070 SCT250
     FM292300 19003KT P6SM BKN220=



000
FTUS44 KLCH 291726
TAFARA
TAF
KARA 291726Z 2918/3018 VRB04KT P6SM SCT070 SCT250
     FM292300 18003KT P6SM BKN220=



000
FTUS44 KLCH 291726
TAFAEX
TAF
KAEX 291726Z 2918/3018 VRB03KT P6SM SCT060 SCT220
     FM300100 18003KT P6SM BKN190=



000
FTUS44 KLCH 291726
TAFBPT
TAF
KBPT 291726Z 2918/3018 16009KT P6SM SCT060 SCT220
     FM292300 21003KT P6SM BKN190=



000
FTUS44 KLCH 291726
TAFLCH
TAF
KLCH 291726Z 2918/3018 VRB05KT P6SM SCT060 SCT220
     FM292300 19003KT P6SM BKN190=



000
FTUS44 KLCH 291726
TAFLFT
TAF
KLFT 291726Z 2918/3018 VRB04KT P6SM SCT070 SCT250
     FM292300 19003KT P6SM BKN220=



000
FTUS44 KLCH 291726
TAFAEX
TAF
KAEX 291726Z 2918/3018 VRB03KT P6SM SCT060 SCT220
     FM300100 18003KT P6SM BKN190=



000
FTUS44 KLCH 291726
TAFBPT
TAF
KBPT 291726Z 2918/3018 16009KT P6SM SCT060 SCT220
     FM292300 21003KT P6SM BKN190=



000
FTUS44 KLCH 291726
TAFLCH
TAF
KLCH 291726Z 2918/3018 VRB05KT P6SM SCT060 SCT220
     FM292300 19003KT P6SM BKN190=



000
FTUS44 KLCH 291726
TAFARA
TAF
KARA 291726Z 2918/3018 VRB04KT P6SM SCT070 SCT250
     FM292300 18003KT P6SM BKN220=



000
FTUS44 KLCH 291122
TAFARA
TAF
KARA 291122Z 2912/3012 VRB03KT P6SM SKC
     FM291800 22005KT P6SM SKC=



000
FTUS44 KLCH 291122
TAFAEX
TAF
KAEX 291122Z 2912/3012 VRB03KT P6SM SKC=



000
FTUS44 KLCH 291122
TAFLCH
TAF
KLCH 291122Z 2912/3012 VRB03KT P6SM SKC
     FM291800 21005KT P6SM SKC=



000
FTUS44 KLCH 291122
TAFLFT
TAF
KLFT 291122Z 2912/3012 VRB03KT P6SM SKC
     FM291800 24005KT P6SM SKC=



000
FTUS44 KLCH 291122
TAFLCH
TAF
KLCH 291122Z 2912/3012 VRB03KT P6SM SKC
     FM291800 21005KT P6SM SKC=



000
FTUS44 KLCH 291122
TAFAEX
TAF
KAEX 291122Z 2912/3012 VRB03KT P6SM SKC=



000
FTUS44 KLCH 291122
TAFBPT
TAF
KBPT 291122Z 2912/3012 VRB03KT P6SM SKC
     FM291800 18007KT P6SM SKC=



000
FTUS44 KLCH 291122
TAFARA
TAF
KARA 291122Z 2912/3012 VRB03KT P6SM SKC
     FM291800 22005KT P6SM SKC=



000
FTUS44 KLCH 291122
TAFBPT
TAF
KBPT 291122Z 2912/3012 VRB03KT P6SM SKC
     FM291800 18007KT P6SM SKC=



000
FTUS44 KLCH 291122
TAFLFT
TAF
KLFT 291122Z 2912/3012 VRB03KT P6SM SKC
     FM291800 24005KT P6SM SKC=



000
FTUS44 KLCH 290520
TAFBPT
TAF
KBPT 290520Z 2906/3006 VRB03KT P6SM SKC
     FM291800 18007KT P6SM SKC=



000
FTUS44 KLCH 290520
TAFAEX
TAF
KAEX 290520Z 2906/3006 VRB03KT P6SM SKC=



000
FTUS44 KLCH 290520
TAFARA
TAF
KARA 290520Z 2906/3006 VRB03KT P6SM SKC
     FM291800 22005KT P6SM SKC=



000
FTUS44 KLCH 290520
TAFLCH
TAF
KLCH 290520Z 2906/3006 VRB03KT P6SM SKC
     FM291800 21005KT P6SM SKC=



000
FTUS44 KLCH 290520
TAFLFT
TAF
KLFT 290520Z 2906/3006 VRB03KT P6SM SKC
     FM291800 24005KT P6SM SKC=



000
FTUS44 KLCH 290520
TAFARA
TAF
KARA 290520Z 2906/3006 VRB03KT P6SM SKC
     FM291800 22005KT P6SM SKC=



000
FTUS44 KLCH 290520
TAFBPT
TAF
KBPT 290520Z 2906/3006 VRB03KT P6SM SKC
     FM291800 18007KT P6SM SKC=



000
FTUS44 KLCH 290520
TAFLFT
TAF
KLFT 290520Z 2906/3006 VRB03KT P6SM SKC
     FM291800 24005KT P6SM SKC=



000
FTUS44 KLCH 290520
TAFLCH
TAF
KLCH 290520Z 2906/3006 VRB03KT P6SM SKC
     FM291800 21005KT P6SM SKC=



000
FTUS44 KLCH 290520
TAFAEX
TAF
KAEX 290520Z 2906/3006 VRB03KT P6SM SKC=



000
FTUS44 KLCH 282320
TAFLFT
TAF
KLFT 282320Z 2900/2924 VRB03KT P6SM SKC
     FM291800 20005KT P6SM SKC=



000
FTUS44 KLCH 282320
TAFLCH
TAF
KLCH 282320Z 2900/2924 VRB03KT P6SM SKC
     FM291800 20006KT P6SM SKC=



000
FTUS44 KLCH 282320
TAFAEX
TAF
KAEX 282320Z 2900/2924 VRB03KT P6SM SKC=



000
FTUS44 KLCH 282320
TAFAEX
TAF
KAEX 282320Z 2900/2924 VRB03KT P6SM SKC=



000
FTUS44 KLCH 282320
TAFLCH
TAF
KLCH 282320Z 2900/2924 VRB03KT P6SM SKC
     FM291800 20006KT P6SM SKC=



000
FTUS44 KLCH 282320
TAFBPT
TAF
KBPT 282320Z 2900/2924 VRB03KT P6SM SKC
     FM291800 17007KT P6SM SKC=



000
FTUS44 KLCH 282320
TAFBPT
TAF
KBPT 282320Z 2900/2924 VRB03KT P6SM SKC
     FM291800 17007KT P6SM SKC=



000
FTUS44 KLCH 282320
TAFARA
TAF
KARA 282320Z 2900/2924 VRB03KT P6SM SKC
     FM291800 20005KT P6SM SKC=



000
FTUS44 KLCH 282320
TAFLFT
TAF
KLFT 282320Z 2900/2924 VRB03KT P6SM SKC
     FM291800 20005KT P6SM SKC=



000
FTUS44 KLCH 282320
TAFARA
TAF
KARA 282320Z 2900/2924 VRB03KT P6SM SKC
     FM291800 20005KT P6SM SKC=



000
FTUS44 KLCH 281926 AAA
TAFBPT
TAF AMD
KBPT 281926Z 2819/2918 VRB06KT P6SM BKN045
     FM282300 19003KT P6SM SKC=



000
FTUS44 KLCH 281720
TAFAEX
TAF
KAEX 281720Z 2818/2918 VRB03KT P6SM SKC=



000
FTUS44 KLCH 281720
TAFARA
TAF
KARA 281720Z 2818/2918 VRB03KT P6SM SKC=



000
FTUS44 KLCH 281720
TAFBPT
TAF
KBPT 281720Z 2818/2918 14006KT P6SM SKC
     FM282300 19003KT P6SM SKC=



000
FTUS44 KLCH 281720
TAFLCH
TAF
KLCH 281720Z 2818/2918 VRB03KT P6SM SKC
     FM282100 19005KT P6SM SKC=



000
FTUS44 KLCH 281720
TAFLFT
TAF
KLFT 281720Z 2818/2918 VRB04KT P6SM SKC=



000
FTUS44 KLCH 281720
TAFAEX
TAF
KAEX 281720Z 2818/2918 VRB03KT P6SM SKC=



000
FTUS44 KLCH 281720
TAFLCH
TAF
KLCH 281720Z 2818/2918 VRB03KT P6SM SKC
     FM282100 19005KT P6SM SKC=



000
FTUS44 KLCH 281720
TAFBPT
TAF
KBPT 281720Z 2818/2918 14006KT P6SM SKC
     FM282300 19003KT P6SM SKC=



000
FTUS44 KLCH 281720
TAFARA
TAF
KARA 281720Z 2818/2918 VRB03KT P6SM SKC=



000
FTUS44 KLCH 281720
TAFLFT
TAF
KLFT 281720Z 2818/2918 VRB04KT P6SM SKC=



000
FTUS44 KLCH 281120
TAFARA
TAF
KARA 281120Z 2812/2912 VRB03KT P6SM SKC
     FM281800 16007KT P6SM SKC
     FM290100 VRB03KT P6SM SKC=



000
FTUS44 KLCH 281120
TAFAEX
TAF
KAEX 281120Z 2812/2912 VRB03KT P6SM SKC=



000
FTUS44 KLCH 281120
TAFLFT
TAF
KLFT 281120Z 2812/2912 VRB04KT P6SM SKC=



000
FTUS44 KLCH 281120
TAFARA
TAF
KARA 281120Z 2812/2912 VRB03KT P6SM SKC
     FM281800 16007KT P6SM SKC
     FM290100 VRB03KT P6SM SKC=



000
FTUS44 KLCH 281120
TAFBPT
TAF
KBPT 281120Z 2812/2912 VRB03KT P6SM SKC
     FM281800 17008KT P6SM SKC
     FM290100 VRB03KT P6SM SKC=



000
FTUS44 KLCH 281120
TAFLFT
TAF
KLFT 281120Z 2812/2912 VRB04KT P6SM SKC=



000
FTUS44 KLCH 281120
TAFLCH
TAF
KLCH 281120Z 2812/2912 VRB03KT P6SM SKC
     FM281800 16007KT P6SM SKC
     FM290100 VRB03KT P6SM SKC=



000
FTUS44 KLCH 281120
TAFLCH
TAF
KLCH 281120Z 2812/2912 VRB03KT P6SM SKC
     FM281800 16007KT P6SM SKC
     FM290100 VRB03KT P6SM SKC=



000
FTUS44 KLCH 281120
TAFBPT
TAF
KBPT 281120Z 2812/2912 VRB03KT P6SM SKC
     FM281800 17008KT P6SM SKC
     FM290100 VRB03KT P6SM SKC=



000
FTUS44 KLCH 281120
TAFAEX
TAF
KAEX 281120Z 2812/2912 VRB03KT P6SM SKC=



000
FTUS44 KLCH 280520
TAFLCH
TAF
KLCH 280520Z 2806/2906 VRB05KT P6SM SKC=



000
FTUS44 KLCH 280520
TAFBPT
TAF
KBPT 280520Z 2806/2906 VRB05KT P6SM SKC
     FM282100 15008KT P6SM SKC=



000
FTUS44 KLCH 280520
TAFARA
TAF
KARA 280520Z 2806/2906 VRB05KT P6SM SKC=



000
FTUS44 KLCH 280520
TAFLFT
TAF
KLFT 280520Z 2806/2906 VRB05KT P6SM SKC=



000
FTUS44 KLCH 280520
TAFAEX
TAF
KAEX 280520Z 2806/2906 VRB05KT P6SM SKC=



000
FTUS44 KLCH 280520
TAFBPT
TAF
KBPT 280520Z 2806/2906 VRB05KT P6SM SKC
     FM282100 15008KT P6SM SKC=



000
FTUS44 KLCH 280520
TAFARA
TAF
KARA 280520Z 2806/2906 VRB05KT P6SM SKC=



000
FTUS44 KLCH 280520
TAFLCH
TAF
KLCH 280520Z 2806/2906 VRB05KT P6SM SKC=



000
FTUS44 KLCH 280520
TAFLFT
TAF
KLFT 280520Z 2806/2906 VRB05KT P6SM SKC=



000
FTUS44 KLCH 280520
TAFAEX
TAF
KAEX 280520Z 2806/2906 VRB05KT P6SM SKC=



000
FTUS44 KLCH 272321
TAFLCH
TAF
KLCH 272321Z 2800/2824 VRB05KT P6SM SKC=



000
FTUS44 KLCH 272321
TAFARA
TAF
KARA 272321Z 2800/2824 VRB05KT P6SM SKC=



000
FTUS44 KLCH 272321
TAFAEX
TAF
KAEX 272321Z 2800/2824 VRB05KT P6SM SKC=



000
FTUS44 KLCH 272321
TAFLFT
TAF
KLFT 272321Z 2800/2824 VRB05KT P6SM SKC=



000
FTUS44 KLCH 272321
TAFBPT
TAF
KBPT 272321Z 2800/2824 VRB05KT P6SM SKC
     FM282000 15008KT P6SM SKC=



000
FTUS44 KLCH 272321
TAFLCH
TAF
KLCH 272321Z 2800/2824 VRB05KT P6SM SKC=



000
FTUS44 KLCH 272321
TAFLFT
TAF
KLFT 272321Z 2800/2824 VRB05KT P6SM SKC=



000
FTUS44 KLCH 272321
TAFAEX
TAF
KAEX 272321Z 2800/2824 VRB05KT P6SM SKC=



000
FTUS44 KLCH 272321
TAFBPT
TAF
KBPT 272321Z 2800/2824 VRB05KT P6SM SKC
     FM282000 15008KT P6SM SKC=



000
FTUS44 KLCH 272321
TAFARA
TAF
KARA 272321Z 2800/2824 VRB05KT P6SM SKC=



    US Dept of Commerce
    National Oceanic and Atmospheric Administration
    National Weather Service
    1325 East West Highway
    Silver Spring, MD 20910
    Page Author: NWS Internet Services Team
Disclaimer
Information Quality
Credits
Glossary
Privacy Policy
Freedom of Information Act (FOIA)
About Us
Career Opportunities